createdAt,value
2022-08-02T00:13:45.745Z,98938.31
2022-08-02T00:16:59.198Z,98934.64
2022-08-02T00:33:01.263Z,98940.16
2022-08-02T00:40:21.290Z,98939.92
2022-08-02T00:43:06.258Z,98944.98
2022-08-02T00:46:01.953Z,98945.90
2022-08-02T00:48:27.483Z,98951.33
2022-08-02T00:50:56.314Z,98952.11
2022-08-02T00:53:23.600Z,98951.69
2022-08-02T00:55:51.476Z,98951.82
2022-08-02T00:58:20.403Z,98948.64
2022-08-02T01:00:47.701Z,98949.52
2022-08-02T01:03:15.094Z,98951.66
2022-08-02T01:06:02.438Z,98951.72
2022-08-02T01:08:31.776Z,98950.75
2022-08-02T01:10:59.906Z,98948.84
2022-08-02T01:13:27.851Z,98949.27
2022-08-02T01:16:02.323Z,98947.28
2022-08-02T01:18:38.415Z,98947.76
2022-08-02T01:21:31.082Z,98947.20
2022-08-02T01:24:12.280Z,98947.73
2022-08-02T01:27:03.013Z,98953.88
2022-08-02T01:29:34.251Z,98955.79
2022-08-02T01:32:14.819Z,98954.79
2022-08-02T01:34:56.339Z,98955.55
2022-08-02T01:37:41.051Z,98958.10
2022-08-02T01:40:17.205Z,98957.30
2022-08-02T01:42:49.492Z,98956.15
2022-08-02T01:45:20.088Z,98953.42
2022-08-02T01:47:48.717Z,98952.73
2022-08-02T01:50:18.521Z,98955.20
2022-08-02T01:52:53.536Z,98958.49
2022-08-02T01:55:33.622Z,98966.02
2022-08-02T01:58:14.400Z,98971.48
2022-08-02T02:00:44.028Z,98969.39
2022-08-02T02:03:20.215Z,98970.96
2022-08-02T02:05:49.850Z,98966.88
2022-08-02T02:08:39.863Z,98969.13
2022-08-02T02:12:06.075Z,98969.71
2022-08-02T02:14:00.158Z,98970.27
2022-08-02T02:16:29.031Z,98971.30
2022-08-02T02:18:57.499Z,98974.30
2022-08-02T02:21:25.560Z,98965.40
2022-08-02T02:23:53.879Z,98963.69
2022-08-02T02:26:30.986Z,98965.30
2022-08-02T02:29:04.070Z,98960.82
2022-08-02T02:31:36.249Z,98960.70
2022-08-02T02:34:32.375Z,98965.34
2022-08-02T02:37:04.731Z,98961.20
2022-08-02T02:39:33.430Z,98964.74
2022-08-02T02:42:03.882Z,98963.57
2022-08-02T02:44:32.867Z,98966.63
2022-08-02T02:47:02.071Z,98968.20
2022-08-02T02:49:32.664Z,98965.92
2022-08-02T02:52:00.697Z,98964.56
2022-08-02T02:54:33.991Z,98970.21
2022-08-02T02:57:06.009Z,98964.48
2022-08-02T02:59:49.374Z,98961.91
2022-08-02T03:02:18.558Z,98964.05
2022-08-02T03:04:56.754Z,98966.89
2022-08-02T03:07:27.712Z,98966.20
2022-08-02T03:09:55.759Z,98971.48
2022-08-02T03:12:30.289Z,98964.30
2022-08-02T03:15:01.820Z,98962.42
2022-08-02T03:17:43.238Z,98959.98
2022-08-02T03:20:20.528Z,98964.54
2022-08-02T03:22:48.210Z,98961.05
2022-08-02T03:25:17.206Z,98960.52
2022-08-02T03:27:45.237Z,98967.01
2022-08-02T03:30:13.967Z,98969.62
2022-08-02T03:32:46.288Z,98973.84
2022-08-02T03:35:23.460Z,98973.65
2022-08-02T03:37:56.426Z,98979.98
2022-08-02T03:40:24.934Z,98978.91
2022-08-02T03:42:54.109Z,98980.48
2022-08-02T03:45:22.426Z,98983.63
2022-08-02T03:47:50.274Z,98987.48
2022-08-02T03:50:19.474Z,98986.61
2022-08-02T03:52:47.671Z,98990.61
2022-08-02T03:55:15.070Z,98997.05
2022-08-02T03:57:43.485Z,99000.70
2022-08-02T04:00:18.047Z,99004.38
2022-08-02T04:02:45.420Z,99009.38
2022-08-02T04:05:14.281Z,99007.58
2022-08-02T04:08:02.618Z,99013.30
2022-08-02T04:10:31.155Z,99014.66
2022-08-02T04:12:59.184Z,99019.84
2022-08-02T04:15:26.369Z,99024.88
2022-08-02T04:17:59.737Z,99032.69
2022-08-02T04:20:33.947Z,99030.83
2022-08-02T04:23:07.109Z,99033.17
2022-08-02T04:25:40.178Z,99040.22
2022-08-02T04:28:17.713Z,99041.83
2022-08-02T04:30:49.680Z,99039.65
2022-08-02T04:33:18.228Z,99045.54
2022-08-02T04:35:45.600Z,99053.16
2022-08-02T04:38:14.824Z,99055.34
2022-08-02T04:40:51.521Z,99054.17
2022-08-02T04:43:19.897Z,99055.71
2022-08-02T04:45:51.167Z,99062.95
2022-08-02T04:48:19.170Z,99066.25
2022-08-02T04:50:46.617Z,99056.80
2022-08-02T04:53:13.994Z,99059.06
2022-08-02T04:55:41.547Z,99067.17
2022-08-02T04:58:24.115Z,99072.81
2022-08-02T05:00:56.884Z,99075.95
2022-08-02T05:03:24.937Z,99078.72
2022-08-02T05:05:52.090Z,99086.52
2022-08-02T05:08:19.597Z,99087.77
2022-08-02T05:10:46.851Z,99092.16
2022-08-02T05:13:14.118Z,99095.38
2022-08-02T05:15:41.431Z,99100.45
2022-08-02T05:18:09.381Z,99104.94
2022-08-02T05:20:36.556Z,99106.02
2022-08-02T05:23:04.103Z,99108.79
2022-08-02T05:25:31.459Z,99113.23
2022-08-02T05:27:58.623Z,99116.00
2022-08-02T05:30:26.021Z,99119.83
2022-08-02T05:32:53.866Z,99118.71
2022-08-02T05:35:22.721Z,99122.96
2022-08-02T05:37:51.227Z,99130.26
2022-08-02T05:40:25.647Z,99132.50
2022-08-02T05:42:54.658Z,99138.76
2022-08-02T05:45:22.885Z,99146.80
2022-08-02T05:47:50.964Z,99143.16
2022-08-02T05:50:19.181Z,99150.03
2022-08-02T05:52:51.630Z,99150.65
2022-08-02T05:55:26.831Z,99149.41
2022-08-02T05:58:15.871Z,99151.64
2022-08-02T06:00:47.545Z,99153.89
2022-08-02T06:03:20.637Z,99149.21
2022-08-02T06:05:50.927Z,99147.89
2022-08-02T06:08:21.222Z,99148.58
2022-08-02T06:10:50.879Z,99152.16
2022-08-02T06:13:17.977Z,99152.77
2022-08-02T06:15:53.666Z,99143.06
2022-08-02T06:18:27.586Z,99136.02
2022-08-02T06:22:31.753Z,99130.45
2022-08-02T06:23:57.714Z,99127.67
2022-08-02T06:26:29.130Z,99127.33
2022-08-02T06:28:58.036Z,99129.46
2022-08-02T06:31:25.977Z,99127.34
2022-08-02T06:33:53.970Z,99129.44
2022-08-02T06:36:36.156Z,99131.39
2022-08-02T06:39:14.335Z,99135.10
2022-08-02T06:41:44.006Z,99141.17
2022-08-02T06:44:45.631Z,99150.02
2022-08-02T06:47:12.353Z,99156.09
2022-08-02T06:49:52.108Z,99157.38
2022-08-02T06:52:30.740Z,99158.05
2022-08-02T06:54:59.963Z,99158.98
2022-08-02T06:57:28.377Z,99162.38
2022-08-02T06:59:56.213Z,99162.88
2022-08-02T07:02:24.571Z,99163.77
2022-08-02T07:04:51.996Z,99174.92
2022-08-02T07:07:19.547Z,99168.67
2022-08-02T07:10:00.858Z,99168.45
2022-08-02T07:12:31.207Z,99167.36
2022-08-02T07:15:00.724Z,99166.04
2022-08-02T07:17:29.229Z,99167.42
2022-08-02T07:19:57.274Z,99167.45
2022-08-02T07:22:28.397Z,99165.11
2022-08-02T07:24:57.684Z,99163.43
2022-08-02T07:27:25.473Z,99163.44
2022-08-02T07:29:54.493Z,99166.95
2022-08-02T07:32:24.558Z,99162.91
2022-08-02T07:34:55.163Z,99161.73
2022-08-02T07:37:53.789Z,99164.08
2022-08-02T07:40:19.857Z,99166.09
2022-08-02T07:42:52.680Z,99162.50
2022-08-02T07:45:22.316Z,99157.39
2022-08-02T07:48:10.918Z,99157.01
2022-08-02T07:50:43.365Z,99154.85
2022-08-02T07:53:10.730Z,99160.73
2022-08-02T07:55:40.328Z,99159.65
2022-08-02T07:58:13.197Z,99163.95
2022-08-02T08:00:43.483Z,99164.19
2022-08-02T08:03:11.211Z,99160.30
2022-08-02T08:05:38.803Z,99160.39
2022-08-02T08:08:06.361Z,99163.21
2022-08-02T08:10:33.993Z,99162.14
2022-08-02T08:13:02.059Z,99161.54
2022-08-02T08:15:29.998Z,99164.48
2022-08-02T08:17:57.375Z,99164.75
2022-08-02T08:20:24.863Z,99165.29
2022-08-02T08:22:52.867Z,99157.55
2022-08-02T08:25:20.108Z,99152.71
2022-08-02T08:27:51.825Z,99151.79
2022-08-02T08:30:22.467Z,99155.34
2022-08-02T08:32:50.442Z,99155.89
2022-08-02T08:35:17.834Z,99155.71
2022-08-02T08:37:45.769Z,99164.27
2022-08-02T08:40:19.574Z,99167.91
2022-08-02T08:42:47.942Z,99162.11
2022-08-02T08:45:17.549Z,99157.43
2022-08-02T08:47:51.004Z,99154.44
2022-08-02T08:50:25.422Z,99158.79
2022-08-02T08:53:00.253Z,99158.70
2022-08-02T08:55:28.735Z,99162.82
2022-08-02T08:57:59.171Z,99160.96
2022-08-02T09:00:27.132Z,99154.18
2022-08-02T09:02:54.792Z,99151.75
2022-08-02T09:05:26.856Z,99152.95
2022-08-02T09:07:54.612Z,99155.11
2022-08-02T09:10:54.964Z,99153.88
2022-08-02T09:13:38.811Z,99155.48
2022-08-02T09:16:14.953Z,99156.40
2022-08-02T09:18:45.762Z,99152.52
2022-08-02T09:21:15.842Z,99156.12
2022-08-02T09:23:47.789Z,99155.52
2022-08-02T09:26:22.101Z,99157.75
2022-08-02T09:28:53.086Z,99154.94
2022-08-02T09:31:22.439Z,99152.35
2022-08-02T09:33:58.868Z,99151.66
2022-08-02T09:36:36.516Z,99148.08
2022-08-02T09:39:07.545Z,99148.30
2022-08-02T09:41:37.608Z,99158.16
2022-08-02T09:44:07.124Z,99153.42
2022-08-02T09:46:39.261Z,99147.83
2022-08-02T09:49:17.378Z,99142.94
2022-08-02T09:51:55.089Z,99147.85
2022-08-02T09:54:33.138Z,99144.30
2022-08-02T09:57:02.475Z,99145.17
2022-08-02T09:59:30.675Z,99142.05
2022-08-02T10:02:02.205Z,99142.25
2022-08-02T10:04:34.360Z,99134.45
2022-08-02T10:07:06.839Z,99128.39
2022-08-02T10:09:34.644Z,99127.62
2022-08-02T10:12:03.477Z,99126.49
2022-08-02T10:14:37.465Z,99123.79
2022-08-02T10:17:06.341Z,99122.88
2022-08-02T10:20:03.428Z,99123.78
2022-08-02T10:22:25.306Z,99126.81
2022-08-02T10:24:54.085Z,99127.05
2022-08-02T10:27:24.891Z,99120.67
2022-08-02T10:29:57.457Z,99120.05
2022-08-02T10:32:37.365Z,99114.36
2022-08-02T10:35:19.877Z,99118.04
2022-08-02T10:37:56.946Z,99120.05
2022-08-02T10:40:28.383Z,99117.50
2022-08-02T10:43:00.868Z,99113.76
2022-08-02T10:45:28.956Z,99119.85
2022-08-02T10:48:04.164Z,99119.30
2022-08-02T10:50:56.495Z,99110.14
2022-08-02T10:53:31.443Z,99110.68
2022-08-02T10:56:01.547Z,99110.68
2022-08-02T10:58:32.916Z,99106.58
2022-08-02T11:01:06.485Z,99102.88
2022-08-02T11:03:40.100Z,99102.95
2022-08-02T11:06:25.956Z,99103.81
2022-08-02T11:09:31.403Z,99099.56
2022-08-02T11:12:03.149Z,99099.84
2022-08-02T11:14:32.191Z,99094.60
2022-08-02T11:17:00.991Z,99094.96
2022-08-02T11:19:29.338Z,99098.37
2022-08-02T11:22:02.126Z,99096.17
2022-08-02T11:24:34.405Z,99095.30
2022-08-02T11:27:03.435Z,99090.34
2022-08-02T11:29:41.644Z,99093.13
2022-08-02T11:32:17.497Z,99092.16
2022-08-02T11:34:47.299Z,99091.36
2022-08-02T11:37:37.963Z,99091.69
2022-08-02T11:40:13.150Z,99087.88
2022-08-02T11:42:53.247Z,99085.70
2022-08-02T11:45:30.222Z,99087.52
2022-08-02T11:47:57.853Z,99083.56
2022-08-02T11:50:30.240Z,99080.92
2022-08-02T11:52:58.362Z,99080.80
2022-08-02T11:55:32.054Z,99079.95
2022-08-02T11:58:05.919Z,99076.39
2022-08-02T12:00:33.958Z,99074.39
2022-08-02T12:03:01.827Z,99075.35
2022-08-02T12:08:22.173Z,99075.70
2022-08-02T12:10:52.838Z,99073.02
2022-08-02T12:13:20.552Z,99073.08
2022-08-02T12:15:48.079Z,99072.81
2022-08-02T12:18:39.807Z,99070.92
2022-08-02T12:21:26.814Z,99069.91
2022-08-02T12:23:59.310Z,99064.86
2022-08-02T12:26:29.405Z,99061.96
2022-08-02T12:28:58.193Z,99060.95
2022-08-02T12:31:56.028Z,99057.00
2022-08-02T12:34:32.015Z,99061.42
2022-08-02T12:37:05.378Z,99062.80
2022-08-02T12:39:45.457Z,99066.01
2022-08-02T12:42:15.110Z,99063.44
2022-08-02T12:44:58.730Z,99061.61
2022-08-02T12:47:35.772Z,99066.96
2022-08-02T12:50:25.936Z,99063.23
2022-08-02T12:53:30.476Z,99054.46
2022-08-02T12:56:02.324Z,99051.45
2022-08-02T12:58:31.514Z,99048.38
2022-08-02T13:01:01.330Z,99051.52
2022-08-02T13:04:10.816Z,99051.77
2022-08-02T13:06:41.342Z,99047.40
2022-08-02T13:09:13.256Z,99045.53
2022-08-02T13:11:43.436Z,99043.34
2022-08-02T13:14:12.894Z,99045.16
2022-08-02T13:16:41.150Z,99040.88
2022-08-02T13:19:08.731Z,99041.38
2022-08-02T13:21:41.089Z,99037.05
2022-08-02T13:24:38.156Z,99032.39
2022-08-02T13:27:08.254Z,99028.18
2022-08-02T13:29:38.390Z,99028.79
2022-08-02T13:32:06.115Z,99018.34
2022-08-02T13:34:33.387Z,99009.63
2022-08-02T13:37:02.312Z,99009.83
2022-08-02T13:39:29.603Z,99008.73
2022-08-02T13:41:56.707Z,99008.02
2022-08-02T13:44:24.252Z,99009.48
2022-08-02T13:46:51.475Z,99009.63
2022-08-02T13:49:20.181Z,99006.53
2022-08-02T13:51:49.998Z,99004.72
2022-08-02T13:54:17.559Z,99003.33
2022-08-02T13:56:45.025Z,99003.11
2022-08-02T13:59:54.749Z,99002.64
2022-08-02T14:02:00.182Z,98997.83
2022-08-02T14:04:30.449Z,98998.45
2022-08-02T14:06:58.879Z,98991.98
2022-08-02T14:09:27.177Z,98992.66
2022-08-02T14:11:54.892Z,98991.29
2022-08-02T14:14:24.128Z,98991.23
2022-08-02T14:16:52.981Z,98986.18
2022-08-02T14:19:21.776Z,98985.22
2022-08-02T14:21:50.039Z,98985.33
2022-08-02T14:24:20.017Z,98984.15
2022-08-02T14:26:48.716Z,98981.64
2022-08-02T14:29:17.199Z,98984.56
2022-08-02T14:31:45.342Z,98984.54
2022-08-02T14:34:13.433Z,98979.99
2022-08-02T14:36:40.658Z,98981.89
2022-08-02T14:39:07.986Z,98984.79
2022-08-02T14:41:59.801Z,98985.97
2022-08-02T14:44:24.791Z,98984.92
2022-08-02T14:46:52.988Z,98982.32
2022-08-02T14:49:25.579Z,98977.38
2022-08-02T14:51:54.914Z,98977.63
2022-08-02T14:54:28.302Z,98971.48
2022-08-02T14:57:01.043Z,98976.20
2022-08-02T14:59:28.655Z,98971.72
2022-08-02T15:01:56.646Z,98969.38
2022-08-02T15:04:25.474Z,98966.61
2022-08-02T15:06:53.766Z,98966.78
2022-08-02T15:09:22.112Z,98967.54
2022-08-02T15:11:50.490Z,98964.00
2022-08-02T15:14:21.871Z,98963.10
2022-08-02T15:16:57.244Z,98958.95
2022-08-02T15:19:50.366Z,98954.37
2022-08-02T15:22:16.768Z,98949.08
2022-08-02T15:24:46.943Z,98948.15
2022-08-02T15:27:15.281Z,98946.66
2022-08-02T15:29:44.552Z,98946.91
2022-08-02T15:32:13.210Z,98948.31
2022-08-02T15:34:40.845Z,98948.17
2022-08-02T15:37:08.521Z,98947.09
2022-08-02T15:39:36.245Z,98953.13
2022-08-02T15:42:04.013Z,98950.33
2022-08-02T15:44:31.755Z,98946.33
2022-08-02T15:46:59.214Z,98945.94
2022-08-02T15:49:26.846Z,98951.87
2022-08-02T15:51:54.988Z,98950.85
2022-08-02T15:54:22.693Z,98954.90
2022-08-02T15:56:50.651Z,98949.50
2022-08-02T15:59:18.226Z,98955.14
2022-08-02T16:01:47.953Z,98952.22
2022-08-02T16:04:16.158Z,98949.64
2022-08-02T16:06:44.445Z,98952.01
2022-08-02T16:09:11.955Z,98950.40
2022-08-02T16:11:39.443Z,98947.02
2022-08-02T16:14:07.514Z,98944.13
2022-08-02T16:16:36.282Z,98945.40
2022-08-02T16:19:46.656Z,98944.23
2022-08-02T16:21:53.650Z,98940.44
2022-08-02T16:24:21.205Z,98940.33
2022-08-02T16:26:49.187Z,98939.34
2022-08-02T16:29:19.395Z,98934.08
2022-08-02T16:31:47.894Z,98936.84
2022-08-02T16:34:16.529Z,98934.04
2022-08-02T16:36:45.635Z,98935.17
2022-08-02T16:39:12.932Z,98933.11
2022-08-02T16:41:51.065Z,98933.86
2022-08-02T16:44:29.184Z,98936.63
2022-08-02T16:47:01.078Z,98936.25
2022-08-02T16:50:04.577Z,98937.62
2022-08-02T16:52:19.904Z,98942.02
2022-08-02T16:54:49.391Z,98937.86
2022-08-02T16:57:19.571Z,98941.10
2022-08-02T17:02:51.948Z,98943.61
2022-08-02T17:05:57.006Z,98944.77
2022-08-02T17:08:54.653Z,98943.49
2022-08-02T17:11:48.025Z,98951.23
2022-08-02T17:14:55.008Z,98951.65
2022-08-02T17:17:47.427Z,98951.02
2022-08-02T17:20:33.194Z,98952.20
2022-08-02T17:23:20.840Z,98954.20
2022-08-02T17:26:13.386Z,98957.37
2022-08-02T17:29:15.783Z,98948.94
2022-08-02T17:32:14.960Z,98949.42
2022-08-02T17:35:09.950Z,98956.25
2022-08-02T17:38:09.115Z,98955.62
2022-08-02T17:40:42.718Z,98949.20
2022-08-02T17:43:14.504Z,98949.63
2022-08-02T17:46:00.932Z,98948.36
2022-08-02T17:48:50.035Z,98949.64
2022-08-02T17:52:16.003Z,98950.61
2022-08-02T17:54:07.494Z,98955.36
2022-08-02T17:56:37.779Z,98955.23
2022-08-02T17:59:30.757Z,98957.57
2022-08-02T18:02:03.475Z,98955.09
2022-08-02T18:04:32.308Z,98951.98
2022-08-02T18:07:03.990Z,98948.15
2022-08-02T18:09:32.325Z,98949.27
2022-08-02T18:12:02.303Z,98952.15
2022-08-02T18:14:30.005Z,98953.13
2022-08-02T18:16:58.358Z,98953.20
2022-08-02T18:22:14.498Z,98960.58
2022-08-02T18:24:44.930Z,98959.71
2022-08-02T18:27:12.807Z,98960.08
2022-08-02T18:29:40.043Z,98963.84
2022-08-02T18:32:11.692Z,98962.16
2022-08-02T18:34:39.465Z,98960.73
2022-08-02T18:37:07.234Z,98963.50
2022-08-02T18:39:38.476Z,98966.15
2022-08-02T18:42:06.014Z,98971.55
2022-08-02T18:44:33.146Z,98970.97
2022-08-02T18:47:01.708Z,98969.73
2022-08-02T18:49:46.693Z,98969.92
2022-08-02T18:52:15.874Z,98965.27
2022-08-02T18:54:58.858Z,98962.15
2022-08-02T18:58:01.782Z,98965.09
2022-08-02T19:00:14.565Z,98968.12
2022-08-02T19:02:42.342Z,98967.63
2022-08-02T19:05:13.179Z,98973.73
2022-08-02T19:07:49.802Z,98979.77
2022-08-02T19:10:19.925Z,98984.70
2022-08-02T19:12:47.241Z,98986.59
2022-08-02T19:15:19.223Z,98984.53
2022-08-02T19:17:53.556Z,98982.71
2022-08-02T19:20:24.092Z,98988.89
2022-08-02T19:22:53.762Z,98990.83
2022-08-02T19:25:27.561Z,98988.30
2022-08-02T19:27:56.055Z,98990.14
2022-08-02T19:30:25.647Z,98987.25
2022-08-02T19:32:59.325Z,98988.81
2022-08-02T19:35:30.572Z,98990.88
2022-08-02T19:38:10.004Z,98989.77
2022-08-02T19:40:38.964Z,98989.88
2022-08-02T19:44:27.475Z,98991.11
2022-08-02T19:45:56.840Z,98988.35
2022-08-02T19:48:25.379Z,98989.30
2022-08-02T19:50:56.148Z,98990.27
2022-08-02T19:53:48.188Z,98989.51
2022-08-02T19:56:20.958Z,98995.27
2022-08-02T19:58:54.810Z,98999.58
2022-08-02T20:01:37.368Z,98997.13
2022-08-02T20:04:13.042Z,98992.27
2022-08-02T20:06:45.738Z,98990.69
2022-08-02T20:09:16.657Z,98988.74
2022-08-02T20:11:47.267Z,98989.27
2022-08-02T20:14:26.906Z,98991.91
2022-08-02T20:16:56.169Z,98999.24
2022-08-02T20:19:29.571Z,98993.40
2022-08-02T20:21:59.580Z,98995.86
2022-08-02T20:24:29.508Z,98999.59
2022-08-02T20:26:59.243Z,98995.80
2022-08-02T20:29:43.368Z,98994.64
2022-08-02T20:32:14.205Z,98996.10
2022-08-02T20:34:41.711Z,98998.62
2022-08-02T20:37:59.192Z,98993.96
2022-08-02T20:39:56.657Z,98998.86
2022-08-02T20:42:24.683Z,98997.67
2022-08-02T20:44:53.677Z,98997.67
2022-08-02T20:47:28.429Z,98995.86
2022-08-02T20:50:31.704Z,98994.90
2022-08-02T20:53:01.014Z,98990.14
2022-08-02T20:58:21.505Z,98991.45
2022-08-02T21:00:59.545Z,98991.52
2022-08-02T21:03:38.875Z,98990.84
2022-08-02T21:06:11.162Z,98994.41
2022-08-02T21:08:46.216Z,98988.91
2022-08-02T21:11:14.229Z,98988.96
2022-08-02T21:16:29.599Z,98992.95
2022-08-02T21:18:59.937Z,98993.78
2022-08-02T21:21:29.710Z,98993.09
2022-08-02T21:24:01.462Z,98995.29
2022-08-02T21:26:30.629Z,98995.94
2022-08-02T21:29:03.277Z,98994.60
2022-08-02T21:31:35.493Z,98992.83
2022-08-02T21:34:21.887Z,98994.23
2022-08-02T21:36:52.932Z,98994.80
2022-08-02T21:39:20.941Z,98991.61
2022-08-02T21:41:49.084Z,98989.67
2022-08-02T21:44:18.936Z,98988.31
2022-08-02T21:46:49.464Z,98986.27
2022-08-02T21:49:40.938Z,98984.80
2022-08-02T21:52:10.151Z,98984.13
2022-08-02T21:54:39.684Z,98987.90
2022-08-02T21:57:15.189Z,98989.42
2022-08-02T21:59:46.437Z,98988.80
2022-08-02T22:02:14.349Z,98994.52
2022-08-02T22:04:48.023Z,98996.38
2022-08-02T22:07:23.993Z,98996.10
2022-08-02T22:09:52.871Z,98992.06
2022-08-02T22:12:20.983Z,98994.73
2022-08-02T22:14:55.749Z,98990.89
2022-08-02T22:17:46.815Z,98988.75
2022-08-02T22:20:19.765Z,98989.52
2022-08-02T22:22:50.542Z,98991.41
2022-08-02T22:25:37.808Z,98989.48
2022-08-02T22:28:39.446Z,98988.96
2022-08-02T22:30:57.547Z,98989.92
2022-08-02T22:34:00.299Z,98988.92
2022-08-02T22:36:31.126Z,98993.94
2022-08-02T22:38:59.736Z,98989.95
2022-08-02T22:42:01.140Z,98995.58
2022-08-02T22:44:18.423Z,98992.70
2022-08-02T22:46:46.888Z,98999.02
2022-08-02T22:49:38.051Z,98996.82
2022-08-02T22:52:06.072Z,98999.58
2022-08-02T22:54:34.548Z,98994.48
2022-08-02T22:57:01.906Z,98998.17
2022-08-02T22:58:50.119Z,98944.80
2022-08-02T22:59:02.194Z,98989.81
2022-08-02T22:59:05.858Z,98989.46
2022-08-02T22:59:10.149Z,98959.00
2022-08-02T22:59:39.052Z,98995.08
2022-08-02T23:02:08.352Z,98996.35
2022-08-02T23:04:36.466Z,98993.03
2022-08-02T23:07:03.926Z,98994.96
2022-08-02T23:09:31.895Z,98991.33
2022-08-02T23:11:59.142Z,98993.11
2022-08-02T23:14:26.500Z,98991.88
2022-08-02T23:17:13.147Z,98991.01
2022-08-02T23:19:53.035Z,98988.11
2022-08-02T23:22:29.520Z,98990.61
2022-08-02T23:24:58.850Z,98990.55
2022-08-02T23:27:27.115Z,98993.98
2022-08-02T23:29:55.079Z,98992.29
2022-08-02T23:32:22.862Z,98992.71
2022-08-02T23:34:54.373Z,98992.06
2022-08-02T23:37:22.370Z,98986.93
2022-08-02T23:39:50.436Z,98982.33
2022-08-02T23:42:18.120Z,98985.96
2022-08-02T23:44:45.458Z,98985.19
2022-08-02T23:47:13.018Z,98987.60
2022-08-02T23:49:41.002Z,98985.48
2022-08-02T23:52:08.661Z,98978.42
2022-08-02T23:54:35.933Z,98983.88
2022-08-02T23:57:20.997Z,98984.73
2022-08-02T23:59:50.628Z,98986.91
